createdAt,value
2022-11-23T00:01:22.769Z,100.00
2022-11-23T00:03:51.907Z,100.00
2022-11-23T00:06:20.987Z,100.00
2022-11-23T00:08:48.286Z,100.00
2022-11-23T00:11:15.541Z,100.00
2022-11-23T00:13:42.763Z,100.00
2022-11-23T00:16:14.679Z,100.00
2022-11-23T00:18:41.322Z,100.00
2022-11-23T00:21:13.519Z,100.00
2022-11-23T00:23:40.258Z,100.00
2022-11-23T00:26:07.271Z,100.00
2022-11-23T00:28:35.138Z,100.00
2022-11-23T00:31:01.570Z,100.00
2022-11-23T00:33:28.032Z,100.00
2022-11-23T00:36:06.615Z,100.00
2022-11-23T00:38:33.714Z,100.00
2022-11-23T00:41:02.552Z,100.00
2022-11-23T00:43:30.006Z,100.00
2022-11-23T00:46:03.975Z,100.00
2022-11-23T00:48:30.488Z,100.00
2022-11-23T00:50:57.037Z,100.00
2022-11-23T00:53:23.657Z,100.00
2022-11-23T00:55:54.786Z,100.00
2022-11-23T00:58:21.837Z,100.00
2022-11-23T01:00:48.295Z,100.00
2022-11-23T01:03:16.152Z,100.00
2022-11-23T01:05:43.024Z,100.00
2022-11-23T01:08:10.823Z,100.00
2022-11-23T01:10:37.457Z,100.00
2022-11-23T01:13:03.928Z,100.00
2022-11-23T01:15:30.413Z,100.00
2022-11-23T01:17:56.867Z,100.00
2022-11-23T01:20:23.313Z,100.00
2022-11-23T01:22:52.256Z,100.00
2022-11-23T01:25:18.961Z,100.00
2022-11-23T01:27:45.439Z,100.00
2022-11-23T01:30:12.287Z,100.00
2022-11-23T01:32:38.689Z,100.00
2022-11-23T01:35:05.426Z,100.00
2022-11-23T01:37:31.863Z,100.00
2022-11-23T01:39:58.630Z,100.00
2022-11-23T01:42:40.308Z,100.00
2022-11-23T01:45:33.751Z,100.00
2022-11-23T01:48:01.180Z,100.00
2022-11-23T01:50:27.662Z,100.00
2022-11-23T01:52:54.183Z,100.00
2022-11-23T01:55:21.373Z,100.00
2022-11-23T01:57:48.002Z,100.00
2022-11-23T02:00:14.958Z,100.00
2022-11-23T02:02:47.484Z,100.00
2022-11-23T02:05:16.336Z,100.00
2022-11-23T02:07:43.047Z,100.00
2022-11-23T02:10:09.871Z,100.00
2022-11-23T02:12:36.372Z,100.00
2022-11-23T02:15:02.920Z,100.00
2022-11-23T02:17:29.373Z,100.00
2022-11-23T02:20:08.477Z,100.00
2022-11-23T02:22:40.608Z,100.00
2022-11-23T02:25:13.682Z,100.00
2022-11-23T02:27:46.739Z,100.00
2022-11-23T02:30:13.583Z,100.00
2022-11-23T02:32:40.225Z,100.00
2022-11-23T02:35:06.973Z,100.00
2022-11-23T02:37:33.450Z,100.00
2022-11-23T02:40:04.407Z,100.00
2022-11-23T02:42:32.206Z,100.00
2022-11-23T02:45:23.257Z,100.00
2022-11-23T02:47:49.734Z,100.00
2022-11-23T02:50:16.378Z,100.00
2022-11-23T02:52:42.853Z,100.00
2022-11-23T02:55:09.871Z,100.00
2022-11-23T02:57:36.802Z,100.00
2022-11-23T03:00:04.803Z,100.00
2022-11-23T03:02:31.197Z,100.00
2022-11-23T03:04:57.679Z,100.00
2022-11-23T03:07:24.232Z,100.00
2022-11-23T03:09:50.764Z,100.00
2022-11-23T03:12:17.260Z,100.00
2022-11-23T03:14:43.769Z,100.00
2022-11-23T03:17:10.204Z,100.00
2022-11-23T03:19:36.647Z,100.00
2022-11-23T03:22:03.944Z,100.00
2022-11-23T03:24:30.431Z,100.00
2022-11-23T03:26:56.856Z,100.00
2022-11-23T03:29:26.390Z,100.00
2022-11-23T03:31:54.230Z,100.00
2022-11-23T03:34:21.162Z,100.00
2022-11-23T03:36:47.930Z,100.00
2022-11-23T03:39:14.467Z,100.00
2022-11-23T03:41:40.882Z,100.00
2022-11-23T03:44:07.542Z,100.00
2022-11-23T03:46:34.012Z,100.00
2022-11-23T03:49:00.483Z,100.00
2022-11-23T03:51:26.973Z,100.00
2022-11-23T03:53:53.416Z,100.00
2022-11-23T03:56:20.120Z,100.00
2022-11-23T03:58:46.583Z,100.00
2022-11-23T04:01:13.249Z,100.00
2022-11-23T04:03:39.777Z,100.00
2022-11-23T04:06:06.264Z,100.00
2022-11-23T04:08:32.812Z,100.00
2022-11-23T04:10:59.543Z,100.00
2022-11-23T04:13:26.275Z,100.00
2022-11-23T04:15:52.695Z,100.00
2022-11-23T04:18:19.118Z,100.00
2022-11-23T04:20:45.528Z,100.00
2022-11-23T04:23:13.591Z,100.00
2022-11-23T04:25:40.310Z,100.00
2022-11-23T04:28:06.892Z,100.00
2022-11-23T04:30:33.300Z,100.00
2022-11-23T04:32:59.704Z,100.00
2022-11-23T04:35:26.233Z,100.00
2022-11-23T04:37:52.676Z,100.00
2022-11-23T04:40:19.186Z,100.00
2022-11-23T04:42:45.629Z,100.00
2022-11-23T04:45:12.089Z,100.00
2022-11-23T04:47:38.614Z,100.00
2022-11-23T04:50:05.480Z,100.00
2022-11-23T04:52:31.866Z,100.00
2022-11-23T04:54:58.272Z,100.00
2022-11-23T04:57:24.700Z,100.00
2022-11-23T04:59:51.150Z,100.00
2022-11-23T05:02:17.629Z,100.00
2022-11-23T05:04:44.076Z,100.00
2022-11-23T05:07:10.669Z,100.00
2022-11-23T05:09:37.348Z,100.00
2022-11-23T05:12:03.978Z,100.00
2022-11-23T05:14:30.472Z,100.00
2022-11-23T05:16:56.964Z,100.00
2022-11-23T05:19:23.492Z,100.00
2022-11-23T05:21:49.974Z,100.00
2022-11-23T05:24:16.481Z,100.00
2022-11-23T05:26:43.071Z,100.00
2022-11-23T05:29:09.510Z,100.00
2022-11-23T05:31:36.003Z,100.00
2022-11-23T05:34:04.443Z,100.00
2022-11-23T05:36:31.220Z,100.00
2022-11-23T05:38:58.116Z,100.00
2022-11-23T05:41:24.733Z,100.00
2022-11-23T05:43:51.196Z,100.00
2022-11-23T05:46:18.817Z,100.00
2022-11-23T05:48:45.347Z,100.00
2022-11-23T05:51:11.874Z,100.00
2022-11-23T05:53:38.321Z,100.00
2022-11-23T05:56:05.005Z,100.00
2022-11-23T05:58:31.493Z,100.00
2022-11-23T06:01:01.670Z,100.00
2022-11-23T06:03:28.168Z,100.00
2022-11-23T06:05:54.652Z,100.00
2022-11-23T06:08:21.287Z,100.00
2022-11-23T06:10:47.786Z,100.00
2022-11-23T06:13:14.245Z,100.00
2022-11-23T06:15:40.641Z,100.00
2022-11-23T06:18:07.103Z,100.00
2022-11-23T06:20:33.661Z,100.00
2022-11-23T06:23:00.100Z,100.00
2022-11-23T06:25:26.677Z,100.00
2022-11-23T06:27:54.113Z,100.00
2022-11-23T06:30:20.665Z,100.00
2022-11-23T06:32:47.181Z,100.00
2022-11-23T06:35:13.690Z,100.00
2022-11-23T06:37:40.288Z,100.00
2022-11-23T06:40:07.432Z,100.00
2022-11-23T06:42:41.048Z,100.00
2022-11-23T06:45:08.915Z,100.00
2022-11-23T06:47:35.375Z,100.00
2022-11-23T06:50:01.859Z,100.00
2022-11-23T06:52:28.393Z,100.00
2022-11-23T06:54:54.983Z,100.00
2022-11-23T06:57:21.449Z,100.00
2022-11-23T06:59:48.392Z,100.00
2022-11-23T07:02:15.020Z,100.00
2022-11-23T07:04:41.476Z,100.00
2022-11-23T07:07:09.124Z,100.00
2022-11-23T07:09:35.931Z,100.00
2022-11-23T07:12:02.694Z,100.00
2022-11-23T07:14:29.087Z,100.00
2022-11-23T07:16:55.812Z,100.00
2022-11-23T07:19:22.399Z,100.00
2022-11-23T07:21:48.854Z,100.00
2022-11-23T07:24:15.272Z,100.00
2022-11-23T07:26:42.887Z,100.00
2022-11-23T07:29:10.415Z,100.00
2022-11-23T07:31:37.021Z,100.00
2022-11-23T07:34:03.554Z,100.00
2022-11-23T07:36:29.927Z,100.00
2022-11-23T07:38:56.488Z,100.00
2022-11-23T07:41:22.916Z,100.00
2022-11-23T07:43:49.522Z,100.00
2022-11-23T07:46:16.016Z,100.00
2022-11-23T07:48:42.435Z,100.00
2022-11-23T07:51:09.053Z,100.00
2022-11-23T07:53:36.567Z,100.00
2022-11-23T07:56:03.614Z,100.00
2022-11-23T07:58:30.075Z,100.00
2022-11-23T08:00:56.479Z,100.00
2022-11-23T08:03:30.565Z,100.00
2022-11-23T08:05:57.382Z,100.00
2022-11-23T08:08:23.886Z,100.00
2022-11-23T08:10:53.777Z,100.00
2022-11-23T08:13:21.886Z,100.00
2022-11-23T08:15:53.789Z,100.00
2022-11-23T08:18:21.869Z,100.00
2022-11-23T08:20:48.467Z,100.00
2022-11-23T08:23:15.004Z,100.00
2022-11-23T08:25:41.728Z,100.00
2022-11-23T08:28:08.232Z,100.00
2022-11-23T08:30:35.273Z,100.00
2022-11-23T08:33:06.436Z,100.00
2022-11-23T08:35:34.151Z,100.00
2022-11-23T08:38:00.702Z,100.00
2022-11-23T08:40:27.210Z,100.00
2022-11-23T08:42:54.576Z,100.00
2022-11-23T08:45:21.540Z,100.00
2022-11-23T08:47:48.126Z,100.00
2022-11-23T08:50:15.051Z,100.00
2022-11-23T08:52:41.498Z,100.00
2022-11-23T08:55:08.299Z,100.00
2022-11-23T08:57:35.067Z,100.00
2022-11-23T09:00:01.952Z,100.00
2022-11-23T09:02:28.434Z,100.00
2022-11-23T09:04:54.986Z,88.37
2022-11-23T09:07:21.546Z,87.95
2022-11-23T09:09:48.296Z,92.56
2022-11-23T09:12:15.070Z,93.33
2022-11-23T09:14:41.451Z,98.61
2022-11-23T09:17:07.901Z,98.58
2022-11-23T09:19:34.330Z,93.85
2022-11-23T09:22:01.129Z,81.43
2022-11-23T09:24:28.002Z,67.29
2022-11-23T09:26:55.096Z,61.61
2022-11-23T09:29:21.773Z,53.51
2022-11-23T09:31:48.294Z,52.30
2022-11-23T09:34:14.829Z,51.18
2022-11-23T09:36:41.413Z,48.87
2022-11-23T09:39:08.490Z,49.37
2022-11-23T09:42:10.183Z,49.19
2022-11-23T09:44:57.209Z,49.94
2022-11-23T09:47:35.571Z,45.29
2022-11-23T09:50:16.655Z,46.75
2022-11-23T09:52:48.888Z,42.65
2022-11-23T09:55:37.792Z,43.87
2022-11-23T09:58:06.834Z,45.68
2022-11-23T10:00:48.770Z,41.26
2022-11-23T10:03:17.256Z,43.06
2022-11-23T10:06:07.290Z,44.55
2022-11-23T10:08:51.836Z,46.49
2022-11-23T10:11:27.393Z,46.13
2022-11-23T10:14:05.957Z,48.16
2022-11-23T10:16:42.416Z,45.24
2022-11-23T10:19:28.325Z,49.04
2022-11-23T10:22:05.393Z,50.97
2022-11-23T10:24:39.528Z,49.63
2022-11-23T10:27:14.404Z,55.49
2022-11-23T10:29:42.375Z,55.46
2022-11-23T10:32:26.775Z,64.88
2022-11-23T10:35:13.265Z,67.19
2022-11-23T10:37:40.636Z,68.83
2022-11-23T10:40:15.941Z,70.79
2022-11-23T10:42:47.038Z,68.57
2022-11-23T10:45:25.621Z,68.98
2022-11-23T10:48:00.306Z,70.58
2022-11-23T10:50:37.569Z,72.12
2022-11-23T10:53:09.950Z,71.10
2022-11-23T10:55:47.608Z,71.99
2022-11-23T10:58:26.193Z,72.81
2022-11-23T11:01:00.724Z,70.94
2022-11-23T11:03:31.903Z,68.79
2022-11-23T11:06:14.663Z,69.02
2022-11-23T11:08:56.249Z,70.20
2022-11-23T11:11:22.686Z,69.70
2022-11-23T11:13:49.926Z,68.79
2022-11-23T11:16:30.845Z,68.05
2022-11-23T11:18:57.731Z,68.64
2022-11-23T11:21:33.786Z,67.89
2022-11-23T11:24:02.725Z,70.47
2022-11-23T11:26:31.211Z,68.94
2022-11-23T11:29:02.026Z,69.17
2022-11-23T11:32:02.684Z,71.50
2022-11-23T11:34:40.424Z,76.00
2022-11-23T11:37:18.932Z,83.19
2022-11-23T11:40:10.576Z,85.84
2022-11-23T11:42:41.604Z,86.75
2022-11-23T11:45:17.380Z,87.52
2022-11-23T11:47:52.303Z,85.94
2022-11-23T11:50:31.477Z,82.38
2022-11-23T11:53:05.491Z,84.78
2022-11-23T11:55:50.830Z,81.72
2022-11-23T11:58:18.322Z,86.33
2022-11-23T12:00:48.413Z,82.42
2022-11-23T12:03:38.076Z,79.28
2022-11-23T12:06:14.178Z,81.32
2022-11-23T12:08:51.073Z,82.09
2022-11-23T12:11:19.445Z,79.78
2022-11-23T12:13:46.993Z,77.02
2022-11-23T12:16:36.808Z,75.66
2022-11-23T12:19:13.997Z,72.78
2022-11-23T12:21:50.055Z,71.99
2022-11-23T12:24:43.281Z,74.12
2022-11-23T12:27:15.483Z,77.21
2022-11-23T12:29:45.123Z,75.56
2022-11-23T12:32:41.787Z,75.82
2022-11-23T12:35:37.565Z,76.46
2022-11-23T12:38:30.082Z,78.21
2022-11-23T12:41:22.174Z,81.42
2022-11-23T12:44:03.601Z,81.34
2022-11-23T12:47:05.498Z,80.00
2022-11-23T12:49:52.016Z,81.02
2022-11-23T12:52:18.478Z,78.97
2022-11-23T12:55:19.212Z,79.42
2022-11-23T12:58:15.271Z,79.10
2022-11-23T13:00:58.553Z,80.53
2022-11-23T13:03:24.982Z,82.10
2022-11-23T13:06:08.496Z,81.78
2022-11-23T13:08:47.283Z,84.50
2022-11-23T13:11:33.897Z,85.45
2022-11-23T13:14:26.107Z,87.27
2022-11-23T13:17:16.692Z,86.90
2022-11-23T13:20:05.040Z,88.81
2022-11-23T13:22:32.734Z,90.28
2022-11-23T13:25:08.065Z,91.70
2022-11-23T13:27:44.639Z,90.88
2022-11-23T13:30:45.510Z,91.99
2022-11-23T13:33:38.840Z,91.76
2022-11-23T13:36:13.884Z,92.71
2022-11-23T13:38:44.917Z,93.10
2022-11-23T13:41:50.196Z,93.37
2022-11-23T13:44:23.542Z,93.13
2022-11-23T13:47:04.845Z,92.97
2022-11-23T13:49:52.876Z,93.62
2022-11-23T13:52:25.150Z,92.95
2022-11-23T13:54:56.099Z,93.69
2022-11-23T13:57:23.194Z,94.50
2022-11-23T13:59:49.737Z,95.82
2022-11-23T14:02:29.194Z,97.41
2022-11-23T14:05:33.184Z,100.00
2022-11-23T14:08:03.131Z,100.00
2022-11-23T14:10:31.803Z,100.00
2022-11-23T14:13:14.333Z,100.00
2022-11-23T14:15:47.094Z,100.00
2022-11-23T14:18:39.050Z,100.00
2022-11-23T14:21:10.945Z,100.00
2022-11-23T14:24:16.013Z,100.00
2022-11-23T14:26:54.544Z,100.00
2022-11-23T14:29:36.468Z,100.00
2022-11-23T14:32:14.051Z,100.00
2022-11-23T14:35:01.515Z,100.00
2022-11-23T14:37:37.275Z,100.00
2022-11-23T14:40:04.124Z,100.00
2022-11-23T14:42:31.924Z,100.00
2022-11-23T14:45:04.724Z,100.00
2022-11-23T14:47:32.137Z,100.00
2022-11-23T14:49:58.786Z,100.00
2022-11-23T14:52:32.032Z,100.00
2022-11-23T14:55:01.942Z,100.00
2022-11-23T14:57:39.791Z,100.00
2022-11-23T15:00:11.586Z,100.00
2022-11-23T15:02:41.222Z,100.00
2022-11-23T15:05:19.199Z,100.00
2022-11-23T15:07:55.135Z,100.00
2022-11-23T15:10:36.555Z,100.00
2022-11-23T15:13:03.036Z,100.00
2022-11-23T15:15:31.058Z,100.00
2022-11-23T15:17:59.667Z,100.00
2022-11-23T15:20:42.169Z,100.00
2022-11-23T15:23:20.353Z,100.00
2022-11-23T15:25:58.107Z,100.00
2022-11-23T15:28:29.987Z,100.00
2022-11-23T15:30:58.664Z,100.00
2022-11-23T15:33:26.118Z,100.00
2022-11-23T15:35:53.781Z,100.00
2022-11-23T15:38:23.807Z,100.00
2022-11-23T15:40:51.421Z,100.00
2022-11-23T15:43:19.697Z,100.00
2022-11-23T15:45:46.155Z,100.00
2022-11-23T15:48:16.291Z,100.00
2022-11-23T15:50:56.570Z,100.00
2022-11-23T15:53:29.353Z,100.00
2022-11-23T15:56:01.456Z,100.00
2022-11-23T15:58:28.812Z,100.00
2022-11-23T16:01:00.414Z,100.00
2022-11-23T16:03:41.758Z,100.00
2022-11-23T16:06:16.170Z,100.00
2022-11-23T16:08:42.643Z,100.00
2022-11-23T16:11:31.693Z,100.00
2022-11-23T16:14:11.235Z,100.00
2022-11-23T16:16:42.728Z,100.00
2022-11-23T16:19:39.232Z,100.00
2022-11-23T16:22:07.556Z,100.00
2022-11-23T16:24:36.156Z,100.00
2022-11-23T16:27:13.771Z,100.00
2022-11-23T16:29:41.091Z,100.00
2022-11-23T16:32:24.364Z,100.00
2022-11-23T16:34:51.494Z,100.00
2022-11-23T16:37:18.319Z,100.00
2022-11-23T16:39:44.763Z,100.00
2022-11-23T16:42:16.417Z,100.00
2022-11-23T16:44:43.404Z,100.00
2022-11-23T16:47:20.498Z,100.00
2022-11-23T16:49:46.974Z,100.00
2022-11-23T16:52:13.410Z,100.00
2022-11-23T16:54:39.788Z,100.00
2022-11-23T16:57:06.449Z,100.00
2022-11-23T16:59:34.137Z,100.00
2022-11-23T17:02:01.153Z,100.00
2022-11-23T17:04:27.737Z,100.00
2022-11-23T17:06:54.341Z,100.00
2022-11-23T17:09:23.765Z,100.00
2022-11-23T17:11:50.924Z,100.00
2022-11-23T17:14:19.301Z,100.00
2022-11-23T17:16:46.951Z,100.00
2022-11-23T17:19:19.014Z,100.00
2022-11-23T17:21:45.515Z,100.00
2022-11-23T17:24:13.758Z,100.00
2022-11-23T17:26:46.500Z,100.00
2022-11-23T17:29:19.518Z,100.00
2022-11-23T17:31:47.151Z,100.00
2022-11-23T17:34:14.967Z,100.00
2022-11-23T17:36:42.968Z,100.00
2022-11-23T17:39:17.910Z,100.00
2022-11-23T17:41:44.366Z,100.00
2022-11-23T17:44:11.009Z,100.00
2022-11-23T17:46:37.674Z,100.00
2022-11-23T17:49:04.169Z,100.00
2022-11-23T17:51:30.675Z,100.00
2022-11-23T17:53:57.214Z,100.00
2022-11-23T17:56:25.840Z,100.00
2022-11-23T17:58:55.289Z,100.00
2022-11-23T18:01:22.630Z,100.00
2022-11-23T18:03:49.588Z,100.00
2022-11-23T18:06:21.907Z,100.00
2022-11-23T18:08:50.232Z,100.00
2022-11-23T18:11:17.436Z,100.00
2022-11-23T18:13:44.184Z,100.00
2022-11-23T18:16:11.313Z,100.00
2022-11-23T18:18:38.063Z,100.00
2022-11-23T18:21:05.637Z,100.00
2022-11-23T18:23:32.417Z,100.00
2022-11-23T18:26:00.879Z,100.00
2022-11-23T18:28:28.136Z,100.00
2022-11-23T18:30:55.036Z,100.00
2022-11-23T18:33:22.208Z,100.00
2022-11-23T18:35:48.784Z,100.00
2022-11-23T18:38:15.499Z,100.00
2022-11-23T18:40:42.354Z,100.00
2022-11-23T18:43:08.841Z,100.00
2022-11-23T18:45:35.323Z,100.00
2022-11-23T18:48:01.814Z,100.00
2022-11-23T18:50:28.211Z,100.00
2022-11-23T18:52:54.985Z,100.00
2022-11-23T18:55:21.491Z,100.00
2022-11-23T18:57:48.045Z,100.00
2022-11-23T19:00:15.949Z,100.00
2022-11-23T19:02:42.622Z,100.00
2022-11-23T19:05:09.262Z,100.00
2022-11-23T19:07:35.814Z,100.00
2022-11-23T19:10:02.430Z,100.00
2022-11-23T19:12:30.393Z,100.00
2022-11-23T19:14:56.894Z,100.00
2022-11-23T19:17:23.384Z,100.00
2022-11-23T19:19:49.798Z,100.00
2022-11-23T19:22:16.239Z,100.00
2022-11-23T19:24:45.652Z,100.00
2022-11-23T19:27:12.129Z,100.00
2022-11-23T19:29:38.705Z,100.00
2022-11-23T19:32:05.610Z,100.00
2022-11-23T19:34:32.078Z,100.00
2022-11-23T19:36:58.466Z,100.00
2022-11-23T19:39:24.945Z,100.00
2022-11-23T19:41:52.020Z,100.00
2022-11-23T19:44:18.486Z,100.00
2022-11-23T19:46:45.021Z,100.00
2022-11-23T19:49:12.427Z,100.00
2022-11-23T19:51:39.115Z,100.00
2022-11-23T19:54:06.161Z,100.00
2022-11-23T19:56:32.568Z,100.00
2022-11-23T19:59:01.102Z,100.00
2022-11-23T20:01:31.976Z,100.00
2022-11-23T20:04:09.630Z,100.00
2022-11-23T20:06:38.701Z,100.00
2022-11-23T20:09:10.580Z,100.00
2022-11-23T20:11:39.500Z,100.00
2022-11-23T20:14:07.140Z,100.00
2022-11-23T20:16:34.030Z,100.00
2022-11-23T20:19:06.397Z,100.00
2022-11-23T20:21:33.915Z,100.00
2022-11-23T20:24:08.431Z,100.00
2022-11-23T20:26:38.335Z,100.00
2022-11-23T20:29:06.855Z,100.00
2022-11-23T20:31:34.773Z,100.00
2022-11-23T20:34:02.597Z,100.00
2022-11-23T20:36:34.386Z,100.00
2022-11-23T20:39:03.201Z,100.00
2022-11-23T20:41:34.411Z,100.00
2022-11-23T20:44:07.146Z,100.00
2022-11-23T20:49:20.555Z,100.00
2022-11-23T20:51:46.969Z,100.00
2022-11-23T20:54:13.440Z,100.00
2022-11-23T20:56:39.933Z,100.00
2022-11-23T20:59:06.687Z,100.00
2022-11-23T21:01:33.457Z,100.00
2022-11-23T21:04:00.222Z,100.00
2022-11-23T21:06:27.780Z,100.00
2022-11-23T21:08:54.350Z,100.00
2022-11-23T21:11:42.737Z,100.00
2022-11-23T21:14:20.707Z,100.00
2022-11-23T21:16:56.476Z,100.00
2022-11-23T21:19:25.437Z,100.00
2022-11-23T21:21:52.995Z,100.00
2022-11-23T21:24:19.803Z,100.00
2022-11-23T21:26:47.208Z,100.00
2022-11-23T21:29:13.816Z,100.00
2022-11-23T21:31:42.917Z,100.00
2022-11-23T21:34:17.673Z,100.00
2022-11-23T21:36:44.387Z,100.00
2022-11-23T21:39:11.940Z,100.00
2022-11-23T21:41:39.195Z,100.00
2022-11-23T21:44:07.149Z,100.00
2022-11-23T21:46:34.304Z,100.00
2022-11-23T21:49:01.500Z,100.00
2022-11-23T21:51:30.455Z,100.00
2022-11-23T21:53:58.735Z,100.00
2022-11-23T21:56:25.821Z,100.00
2022-11-23T21:58:52.429Z,100.00
2022-11-23T22:01:28.149Z,100.00
2022-11-23T22:03:56.957Z,100.00
2022-11-23T22:06:23.917Z,100.00
2022-11-23T22:08:52.938Z,100.00
2022-11-23T22:11:26.576Z,100.00
2022-11-23T22:13:55.335Z,100.00
2022-11-23T22:16:33.487Z,100.00
2022-11-23T22:19:00.770Z,100.00
2022-11-23T22:21:33.478Z,100.00
2022-11-23T22:24:00.571Z,100.00
2022-11-23T22:26:30.380Z,100.00
2022-11-23T22:28:57.960Z,100.00
2022-11-23T22:31:26.049Z,100.00
2022-11-23T22:33:53.398Z,100.00
2022-11-23T22:36:22.606Z,100.00
2022-11-23T22:39:00.962Z,100.00
2022-11-23T22:41:29.902Z,100.00
2022-11-23T22:43:56.651Z,100.00
2022-11-23T22:46:24.573Z,100.00
2022-11-23T22:48:52.255Z,100.00
2022-11-23T22:51:21.172Z,100.00
2022-11-23T22:53:48.181Z,100.00
2022-11-23T22:56:15.913Z,100.00
2022-11-23T22:58:43.369Z,100.00
2022-11-23T23:01:24.542Z,100.00
2022-11-23T23:03:56.144Z,100.00
2022-11-23T23:06:26.693Z,100.00
2022-11-23T23:09:01.292Z,100.00
2022-11-23T23:11:30.497Z,100.00
2022-11-23T23:13:57.498Z,100.00
2022-11-23T23:16:24.774Z,100.00
2022-11-23T23:18:51.644Z,100.00
2022-11-23T23:21:22.254Z,100.00
2022-11-23T23:23:50.914Z,100.00
2022-11-23T23:26:19.359Z,100.00
2022-11-23T23:28:46.527Z,100.00
2022-11-23T23:31:16.255Z,100.00
2022-11-23T23:33:44.162Z,100.00
2022-11-23T23:36:22.234Z,100.00
2022-11-23T23:38:49.795Z,100.00
2022-11-23T23:41:16.324Z,100.00
2022-11-23T23:43:43.292Z,100.00
2022-11-23T23:46:11.981Z,100.00
2022-11-23T23:48:39.860Z,100.00
2022-11-23T23:51:08.442Z,100.00
2022-11-23T23:53:35.979Z,100.00
2022-11-23T23:56:05.558Z,100.00
2022-11-23T23:58:32.149Z,100.00
